• Join FlightAware (Why Join?)
  • Login
  • US Flag 
11:01PM EDT


 

Airport Tracker/Info


-or-


 

Live Flight TrackerFlight Track Log ✈ SWA864 ✈ 11-May-2013 ✈ KALB - KMDW

Flight Track Log - Related Links

Times and Time Zones

All times are in EDT time to prevent confusion due to time zone crossing. See the SWA864 flight status page for this flight to view local times or setup timezone preferences in your user account.

Time Position Orientation Groundspeed Altitude Reporting Facility
EDT Latitude Longitude Course Direction KTS MPH feet Rate Location/Type
07:28AM 42.7339 -73.8081 227° Southwest 129 148 1,200  Level Boston Center
07:29AM 42.7086 -73.8444 227° Southwest 203 234 3,700 2,400 Climbing Boston Center
07:30AM 42.7686 -73.8825 335° Northwest 229 264 6,400 3,180 Climbing Boston Center
07:31AM 42.8325 -73.9322 330° Northwest 247 284 10,100 3,600 Climbing Boston Center
07:32AM 42.9047 -73.9819 333° Northwest 272 313 13,700 3,300 Climbing Boston Center
07:33AM 42.9769 -74.0322 333° Northwest 302 348 16,800 2,460 Climbing Boston Center
07:34AM 43.0064 -74.1550 288° West 308 354 18,700 2,340 Climbing Boston Center
07:35AM 43.0189 -74.3003 277° West 342 394 21,500 2,760 Climbing Boston Center
07:36AM 43.0308 -74.4425 277° West 363 418 24,300 2,580 Climbing Boston Center
07:37AM 43.0431 -74.5850 277° West 382 440 26,700 2,160 Climbing Boston Center
07:38AM 43.0525 -74.7331 275° West 387 445 28,700 1,980 Climbing Boston Center
07:39AM 43.0661 -74.8842 277° West 398 458 30,700 2,100 Climbing Boston Center
07:40AM 43.0775 -75.0356 276° West 403 464 33,000 2,100 Climbing Boston Center
07:41AM 43.0886 -75.1836 276° West 403 464 34,900 1,560 Climbing Boston Center
07:42AM 43.0975 -75.3292 275° West 403 464 36,200 1,080 Climbing Boston Center
07:43AM 43.1083 -75.4664 276° West 403 464 37,100 900 Climbing Boston Center
07:44AM 43.1189 -75.6203 275° West 409 471 38,000 1,020 Climbing Boston Center
07:45AM 43.1311 -75.7775 276° West 414 476 39,200 960 Climbing Boston Center
07:46AM 43.1431 -75.9292 276° West 409 471 40,000 240 Climbing Boston Center
07:48AM 43.1392 -76.2867 269° West 391 450 40,000  Level Cleveland Center
07:49AM 43.0961 -76.4203 246° West 391 450 40,000  Level Cleveland Center
07:50AM 43.0531 -76.5569 247° West 391 450 40,000  Level Cleveland Center
07:51AM 43.0075 -76.6875 245° Southwest 391 450 40,000  Level Cleveland Center
07:52AM 42.9639 -76.8208 246° West 391 450 40,000  Level Cleveland Center
07:53AM 42.9200 -76.9539 246° West 386 444 40,000  Level Cleveland Center
07:54AM 42.8764 -77.0897 246° West 386 444 40,000  Level Cleveland Center
07:55AM 42.8325 -77.2253 246° West 386 444 40,000  Level Cleveland Center
07:56AM 42.7903 -77.3578 247° West 386 444 40,000  Level Cleveland Center
07:57AM 42.7461 -77.4900 246° West 386 444 40,000  Level Cleveland Center
07:58AM 42.7092 -77.5992 245° Southwest 386 444 40,000  Level Cleveland Center
07:59AM 42.6592 -77.7597 247° West 386 444 40,000  Level Cleveland Center
08:00AM 42.6161 -77.8803 244° Southwest 386 444 40,000  Level Cleveland Center
08:01AM 42.5711 -78.0119 245° Southwest 391 450 40,000  Level Cleveland Center
08:02AM 42.5281 -78.1406 246° West 391 450 40,000  Level Cleveland Center
08:03AM 42.4831 -78.2744 246° West 386 444 40,000  Level Cleveland Center
08:04AM 42.4375 -78.4056 245° Southwest 386 444 40,000  Level Cleveland Center
08:05AM 42.3922 -78.5394 245° Southwest 386 444 40,000  Level Cleveland Center
08:06AM 42.3464 -78.6728 245° Southwest 386 444 40,000  Level Cleveland Center
08:07AM 42.3006 -78.8033 245° Southwest 386 444 40,000 -180 Level Cleveland Center
08:08AM 42.2506 -78.9478 245° Southwest 386 444 39,700 -660 Descending Cleveland Center
08:09AM 42.2025 -79.0808 244° Southwest 386 444 38,700 -900 Descending Cleveland Center
08:10AM 42.1625 -79.2217 249° West 397 457 38,000 -360 Descending Cleveland Center
08:11AM 42.1264 -79.3625 251° West 403 464 38,000  Level Cleveland Center
08:12AM 42.0906 -79.5058 251° West 403 464 38,000  Level Cleveland Center
08:13AM 42.0542 -79.6464 251° West 403 464 38,000  Level Cleveland Center
08:14AM 42.0156 -79.7867 250° West 409 471 38,000  Level Cleveland Center
08:15AM 41.9811 -79.9239 251° West 403 464 38,000  Level Cleveland Center
08:16AM 41.9461 -80.0472 249° West 398 458 38,000  Level Cleveland Center
08:17AM 41.9092 -80.1814 250° West 391 450 38,000  Level Cleveland Center
08:18AM 41.8700 -80.3322 251° West 391 450 38,000  Level Cleveland Center
08:19AM 41.8328 -80.4689 250° West 391 450 38,000  Level Cleveland Center
08:20AM 41.7953 -80.6053 250° West 391 450 38,000  Level Cleveland Center
08:21AM 41.7578 -80.7417 250° West 391 450 38,000  Level Cleveland Center
08:22AM 41.7200 -80.8781 250° West 391 450 38,000  Level Cleveland Center
08:23AM 41.6839 -81.0114 250° West 391 450 38,000  Level Cleveland Center
08:24AM 41.6458 -81.1472 249° West 391 450 38,000  Level Cleveland Center
08:25AM 41.6075 -81.2803 249° West 391 450 38,000  Level Cleveland Center
08:26AM 41.5692 -81.4186 250° West 391 450 38,000  Level Cleveland Center
08:27AM 41.5306 -81.5539 249° West 391 450 38,000  Level Cleveland Center
08:28AM 41.4939 -81.6892 250° West 391 450 38,000  Level Cleveland Center
08:29AM 41.4550 -81.8300 250° West 391 450 38,000  Level Cleveland Center
08:30AM 41.4158 -81.9647 249° West 396 456 38,000  Level Cleveland Center
08:31AM 41.3811 -82.0831 249° West 396 456 38,000  Level Cleveland Center
08:32AM 41.3622 -82.2431 261° West 390 449 38,000  Level Cleveland Center
08:33AM 41.3686 -82.3733 274° West 393 452 38,000  Level Cleveland Center
08:34AM 41.3764 -82.5231 274° West 398 458 38,000  Level Cleveland Center
08:35AM 41.3864 -82.6644 275° West 398 458 38,000  Level Cleveland Center
08:36AM 41.3942 -82.8086 274° West 398 458 38,000  Level Cleveland Center
08:37AM 41.4017 -82.9528 274° West 398 458 38,000  Level Cleveland Center
08:38AM 41.4092 -83.0997 274° West 398 458 38,000  Level Cleveland Center
08:39AM 41.4178 -83.2636 274° West 403 464 38,000  Level Cleveland Center
08:40AM 41.4231 -83.3967 273° West 403 464 38,000 -300 Level Cleveland Center
08:41AM 41.4294 -83.5494 273° West 403 464 37,400 -840 Descending Cleveland Center
08:42AM 41.4381 -83.7022 274° West 403 464 36,400 -720 Descending Cleveland Center
08:43AM 41.4464 -83.8522 274° West 403 464 36,000 -240 Descending Cleveland Center
08:45AM 41.4606 -84.1589 274° West 404 465 35,800 -540 Descending Chicago Center
08:46AM 41.4667 -84.3089 273° West 406 467 34,500 -1,860 Descending Chicago Center
08:47AM 41.4731 -84.4544 273° West 395 455 32,100 -2,220 Descending Chicago Center
08:48AM 41.4786 -84.6028 273° West 400 460 30,000 -1,080 Descending Chicago Center
08:49AM 41.4839 -84.7547 273° West 409 471 30,000  Level Chicago Center
08:50AM 41.4906 -84.9092 273° West 416 479 30,000  Level Chicago Center
08:51AM 41.4956 -85.0628 273° West 417 480 30,000 -720 Level Chicago Center
08:52AM 41.5011 -85.2169 273° West 414 476 28,600 -2,100 Descending Chicago Center
08:53AM 41.5047 -85.3658 272° West 399 459 25,800 -2,340 Descending Chicago Center
08:54AM 41.5100 -85.5106 273° West 383 441 23,900 -1,380 Descending Chicago Center
08:55AM 41.5147 -85.6608 272° West 398 458 23,000 -960 Descending Chicago Center
08:56AM 41.5183 -85.8094 272° West 400 460 22,000 -1,920 Descending Chicago Center
08:57AM 41.5231 -85.9756 272° West 373 429 19,100 -2,700 Descending Chicago Center
08:58AM 41.5253 -86.1083 271° West 360 414 16,600 -2,520 Descending Chicago Center
08:59AM 41.5231 -86.2389 269° West 354 407 14,000 -2,520 Descending Chicago Center
09:00AM 41.5236 -86.3625 270° West 338 389 11,500 -1,800 Descending Chicago Center
09:01AM 41.5231 -86.4825 270° West 328 377 10,400 -780 Descending Chicago Center
09:02AM 41.5217 -86.6083 269° West 340 391 10,000 -240 Descending Chicago Center
09:03AM 41.5200 -86.7369 269° West 342 394 10,000  Level Chicago Center
09:05AM 41.5192 -86.8586 270° West 329 379 10,000 -480 Level Chicago Center
09:06AM 41.5181 -86.9561 269° West 269 310 9,100 -1,200 Descending Chicago Center
09:07AM 41.5314 -87.0689 279° West 268 308 7,600 -1,260 Descending Chicago Center
09:08AM 41.5531 -87.1581 288° West 258 297 6,600 -960 Descending Chicago Center
09:08AM 41.5667 -87.1833 306° West 255 293 6,300 -840 Descending Chicago TRACON
09:09AM 41.5833 -87.2667 285° West 251 289 5,600 -900 Descending Chicago TRACON
09:10AM 41.6000 -87.3500 285° West 251 289 4,600 -1,080 Descending Chicago TRACON
09:11AM 41.6219 -87.4189 293° West 251 289 3,700 -900 Descending Chicago Center
09:12AM 41.6436 -87.5053 289° West 250 288 3,000 -600 Descending Chicago Center
09:13AM 41.6697 -87.5919 292° West 230 265 2,500 -300 Descending Chicago Center
09:14AM 41.7000 -87.6333 314° West 193 222 2,500 -300 Level Chicago TRACON
09:15AM 41.7333 -87.6833 312° West 159 183 2,000 -600 Descending Chicago TRACON
09:15AM 41.7500 -87.7167 304° West 128 147 1,400 -720 Descending Chicago TRACON